Sweetwater, Nevada
Current Conditions -  °F | °C
As of 7:52 AM on Friday 19 Dec 2014 (Local Time) from KBAN Reporting Station
Clear Clear  
Wind Chill: 31°   Ceiling: Unl
Heat Index: 38°   Visibility: NA
Dew Point:   Wind: 10mph
Humidity: 28%   Direction: 190°S
Pressure: 30.06"   Gusts: 20mph
Location:  38.7596°N, 119.34°W
Report Text: KBAN 191552Z AUTO 19009G17KT CLR 03/M14 A3006 RMK AO2 SLP179 T00331139 $
Loading
Personal Weather Stations






























Interactive Weather Map New forecast layout! Learn more

10-Day Weather Forecast

Advertisements
Track Severe Weather on mobile